createdAt,value
2016-11-28T00:00:57.474Z,1019.94
2016-11-28T00:01:57.453Z,1019.94
2016-11-28T00:02:57.437Z,1019.99
2016-11-28T00:03:57.420Z,1019.97
2016-11-28T00:04:57.405Z,1020.01
2016-11-28T00:05:57.386Z,1020.04
2016-11-28T00:06:57.370Z,1020.02
2016-11-28T00:07:57.356Z,1019.99
2016-11-28T00:08:57.339Z,1020.02
2016-11-28T00:09:57.321Z,1019.98
2016-11-28T00:10:57.304Z,1020.04
2016-11-28T00:11:57.290Z,1020.1
2016-11-28T00:12:57.271Z,1020.09
2016-11-28T00:13:57.255Z,1020.1
2016-11-28T00:14:57.240Z,1020.09
2016-11-28T00:15:57.222Z,1020.11
2016-11-28T00:16:57.205Z,1020.14
2016-11-28T00:17:57.188Z,1020.09
2016-11-28T00:18:57.172Z,1020.13
2016-11-28T00:19:57.155Z,1020.12
2016-11-28T00:20:57.141Z,1020.13
2016-11-28T00:21:57.121Z,1020.08
2016-11-28T00:22:57.106Z,1020.09
2016-11-28T00:23:57.088Z,1020.12
2016-11-28T00:24:57.069Z,1020.08
2016-11-28T00:25:57.056Z,1020.16
2016-11-28T00:26:57.037Z,1020.12
2016-11-28T00:27:57.022Z,1020.1
2016-11-28T00:28:57.003Z,1020.12
2016-11-28T00:29:56.989Z,1020.16
2016-11-28T00:30:56.972Z,1020.13
2016-11-28T00:31:56.955Z,1020.16
2016-11-28T00:32:56.939Z,1020.16
2016-11-28T00:33:56.922Z,1020.18
2016-11-28T00:34:56.905Z,1020.23
2016-11-28T00:35:56.888Z,1020.25
2016-11-28T00:36:56.872Z,1020.19
2016-11-28T00:37:56.855Z,1020.22
2016-11-28T00:38:56.838Z,1020.18
2016-11-28T00:39:56.821Z,1020.23
2016-11-28T00:40:56.806Z,1020.27
2016-11-28T00:41:56.789Z,1020.28
2016-11-28T00:42:56.773Z,1020.33
2016-11-28T00:43:56.758Z,1020.3
2016-11-28T00:44:56.735Z,1020.32
2016-11-28T00:45:56.722Z,1020.33
2016-11-28T00:46:56.707Z,1020.31
2016-11-28T00:47:56.691Z,1020.35
2016-11-28T00:48:56.668Z,1020.33
2016-11-28T00:49:56.655Z,1020.39
2016-11-28T00:50:56.638Z,1020.4
2016-11-28T00:51:56.623Z,1020.39
2016-11-28T00:52:56.605Z,1020.4
2016-11-28T00:53:56.588Z,1020.41
2016-11-28T00:54:56.572Z,1020.41
2016-11-28T00:55:56.556Z,1020.39
2016-11-28T00:56:56.538Z,1020.42
2016-11-28T00:57:56.521Z,1020.52
2016-11-28T00:58:56.500Z,1020.46
2016-11-28T00:59:56.487Z,1020.49
2016-11-28T01:00:56.471Z,1020.51
2016-11-28T01:01:56.458Z,1020.49
2016-11-28T01:02:56.436Z,1020.5
2016-11-28T01:03:56.417Z,1020.51
2016-11-28T01:04:56.405Z,1020.51
2016-11-28T01:05:56.387Z,1020.56
2016-11-28T01:06:56.373Z,1020.52
2016-11-28T01:07:56.352Z,1020.55
2016-11-28T01:08:56.336Z,1020.56
2016-11-28T01:09:56.319Z,1020.56
2016-11-28T01:10:56.302Z,1020.53
2016-11-28T01:11:56.286Z,1020.56
2016-11-28T01:12:56.272Z,1020.58
2016-11-28T01:13:56.256Z,1020.55
2016-11-28T01:14:56.233Z,1020.57
2016-11-28T01:15:56.219Z,1020.54
2016-11-28T01:16:56.200Z,1020.55
2016-11-28T01:17:56.183Z,1020.57
2016-11-28T01:18:56.166Z,1020.55
2016-11-28T01:19:56.148Z,1020.56
2016-11-28T01:20:56.133Z,1020.53
2016-11-28T01:21:56.115Z,1020.56
2016-11-28T01:22:56.100Z,1020.55
2016-11-28T01:23:56.083Z,1020.56
2016-11-28T01:24:56.066Z,1020.62
2016-11-28T01:25:56.046Z,1020.56
2016-11-28T01:26:56.035Z,1020.6
2016-11-28T01:27:56.014Z,1020.61
2016-11-28T01:28:55.995Z,1020.62
2016-11-28T01:29:55.979Z,1020.68
2016-11-28T01:30:55.962Z,1020.74
2016-11-28T01:31:55.945Z,1020.71
2016-11-28T01:32:55.930Z,1020.67
2016-11-28T01:33:55.911Z,1020.71
2016-11-28T01:34:55.895Z,1020.69
2016-11-28T01:35:55.877Z,1020.69
2016-11-28T01:36:55.861Z,1020.7
2016-11-28T01:37:55.843Z,1020.66
2016-11-28T01:38:55.878Z,1020.69
2016-11-28T01:39:55.811Z,1020.66
2016-11-28T01:40:55.794Z,1020.73
2016-11-28T01:41:55.775Z,1020.64
2016-11-28T01:42:55.763Z,1020.63
2016-11-28T01:43:55.742Z,1020.62
2016-11-28T01:44:55.724Z,1020.66
2016-11-28T01:45:55.709Z,1020.64
2016-11-28T01:46:55.692Z,1020.66
2016-11-28T01:47:55.673Z,1020.69
2016-11-28T01:48:55.657Z,1020.63
2016-11-28T01:49:55.641Z,1020.65
2016-11-28T01:50:55.622Z,1020.64
2016-11-28T01:51:55.606Z,1020.66
2016-11-28T01:52:55.588Z,1020.64
2016-11-28T01:53:55.573Z,1020.68
2016-11-28T01:54:55.557Z,1020.73
2016-11-28T01:55:55.539Z,1020.74
2016-11-28T01:56:55.523Z,1020.77
2016-11-28T01:57:55.504Z,1020.76
2016-11-28T01:58:55.487Z,1020.77
2016-11-28T01:59:55.466Z,1020.78
2016-11-28T02:00:55.451Z,1020.77
2016-11-28T02:01:55.437Z,1020.78
2016-11-28T02:02:55.418Z,1020.81
2016-11-28T02:03:55.401Z,1020.79
2016-11-28T02:04:55.386Z,1020.79
2016-11-28T02:05:55.374Z,1020.84
2016-11-28T02:06:55.351Z,1020.86
2016-11-28T02:07:55.334Z,1020.89
2016-11-28T02:08:55.317Z,1020.87
2016-11-28T02:09:55.301Z,1020.91
2016-11-28T02:10:55.286Z,1020.91
2016-11-28T02:11:55.263Z,1020.87
2016-11-28T02:12:55.248Z,1020.93
2016-11-28T02:13:55.231Z,1020.89
2016-11-28T02:14:55.213Z,1020.89
2016-11-28T02:15:55.198Z,1020.92
2016-11-28T02:16:55.183Z,1020.92
2016-11-28T02:17:55.164Z,1020.93
2016-11-28T02:18:55.146Z,1020.93
2016-11-28T02:19:55.134Z,1020.93
2016-11-28T02:20:55.114Z,1020.95
2016-11-28T02:21:55.097Z,1020.96
2016-11-28T02:22:55.080Z,1020.95
2016-11-28T02:23:55.065Z,1020.87
2016-11-28T02:24:55.045Z,1020.87
2016-11-28T02:25:55.029Z,1020.87
2016-11-28T02:26:55.011Z,1020.86
2016-11-28T02:27:54.993Z,1020.91
2016-11-28T02:28:54.977Z,1020.92
2016-11-28T02:29:54.961Z,1020.88
2016-11-28T02:30:54.944Z,1020.92
2016-11-28T02:31:54.925Z,1020.88
2016-11-28T02:32:54.907Z,1020.98
2016-11-28T02:33:54.895Z,1020.92
2016-11-28T02:34:54.875Z,1020.94
2016-11-28T02:35:54.858Z,1020.92
2016-11-28T02:36:54.843Z,1020.98
2016-11-28T02:37:54.822Z,1020.96
2016-11-28T02:38:54.808Z,1020.93
2016-11-28T02:39:54.791Z,1020.94
2016-11-28T02:40:54.772Z,1020.91
2016-11-28T02:41:54.755Z,1020.87
2016-11-28T02:42:54.738Z,1020.84
2016-11-28T02:43:54.720Z,1020.83
2016-11-28T02:44:54.705Z,1020.9
2016-11-28T02:45:54.692Z,1020.9
2016-11-28T02:46:54.669Z,1020.91
2016-11-28T02:47:54.654Z,1020.89
2016-11-28T02:48:54.637Z,1020.91
2016-11-28T02:49:54.617Z,1020.89
2016-11-28T02:50:54.604Z,1020.9
2016-11-28T02:51:54.585Z,1020.94
2016-11-28T02:52:54.569Z,1020.91
2016-11-28T02:53:54.550Z,1020.88
2016-11-28T02:54:54.533Z,1020.85
2016-11-28T02:55:54.516Z,1020.88
2016-11-28T02:56:54.499Z,1020.89
2016-11-28T02:57:54.481Z,1020.88
2016-11-28T02:58:54.464Z,1020.94
2016-11-28T02:59:54.449Z,1020.94
2016-11-28T03:00:54.429Z,1020.98
2016-11-28T03:01:54.416Z,1020.98
2016-11-28T03:02:54.395Z,1021
2016-11-28T03:03:54.380Z,1020.98
2016-11-28T03:04:54.361Z,1020.97
2016-11-28T03:05:54.345Z,1020.97
2016-11-28T03:06:54.330Z,1020.96
2016-11-28T03:07:54.314Z,1020.98
2016-11-28T03:08:54.294Z,1020.94
2016-11-28T03:09:54.277Z,1020.96
2016-11-28T03:10:54.260Z,1021
2016-11-28T03:11:54.242Z,1020.99
2016-11-28T03:12:54.223Z,1020.99
2016-11-28T03:13:54.208Z,1021.01
2016-11-28T03:14:54.191Z,1020.99
2016-11-28T03:15:54.176Z,1020.97
2016-11-28T03:16:54.156Z,1021
2016-11-28T03:17:54.139Z,1020.96
2016-11-28T03:18:54.122Z,1020.96
2016-11-28T03:19:54.104Z,1020.94
2016-11-28T03:20:54.092Z,1020.96
2016-11-28T03:21:54.070Z,1020.94
2016-11-28T03:22:54.053Z,1020.89
2016-11-28T03:23:54.040Z,1020.93
2016-11-28T03:24:54.018Z,1020.96
2016-11-28T03:25:54.004Z,1020.95
2016-11-28T03:26:53.984Z,1020.99
2016-11-28T03:27:53.967Z,1021.05
2016-11-28T03:28:53.952Z,1021.02
2016-11-28T03:29:53.937Z,1021.01
2016-11-28T03:30:53.917Z,1020.97
2016-11-28T03:31:53.900Z,1021.04
2016-11-28T03:32:53.882Z,1021.08
2016-11-28T03:33:53.863Z,1021.11
2016-11-28T03:34:53.847Z,1021.05
2016-11-28T03:35:53.831Z,1021.07
2016-11-28T03:36:53.817Z,1021.09
2016-11-28T03:37:53.796Z,1021.07
2016-11-28T03:38:53.779Z,1021.11
2016-11-28T03:39:53.762Z,1021.11
2016-11-28T03:40:53.745Z,1021.14
2016-11-28T03:41:53.728Z,1021.21
2016-11-28T03:42:53.710Z,1021.15
2016-11-28T03:43:53.699Z,1021.23
2016-11-28T03:44:53.675Z,1021.21
2016-11-28T03:45:53.659Z,1021.23
2016-11-28T03:46:53.642Z,1021.25
2016-11-28T03:47:53.625Z,1021.22
2016-11-28T03:48:53.609Z,1021.3
2016-11-28T03:49:53.590Z,1021.3
2016-11-28T03:50:53.573Z,1021.32
2016-11-28T03:51:53.557Z,1021.3
2016-11-28T03:52:53.538Z,1021.34
2016-11-28T03:53:53.525Z,1021.34
2016-11-28T03:54:53.506Z,1021.34
2016-11-28T03:55:53.486Z,1021.34
2016-11-28T03:56:53.469Z,1021.36
2016-11-28T03:57:53.459Z,1021.36
2016-11-28T03:58:53.437Z,1021.36
2016-11-28T03:59:53.417Z,1021.36
2016-11-28T04:00:53.402Z,1021.39
2016-11-28T04:01:53.383Z,1021.44
2016-11-28T04:02:53.416Z,1021.4
2016-11-28T04:03:53.348Z,1021.38
2016-11-28T04:04:53.331Z,1021.39
2016-11-28T04:05:53.316Z,1021.42
2016-11-28T04:06:53.297Z,1021.39
2016-11-28T04:07:53.280Z,1021.42
2016-11-28T04:08:53.263Z,1021.39
2016-11-28T04:09:53.247Z,1021.38
2016-11-28T04:10:53.228Z,1021.42
2016-11-28T04:11:53.211Z,1021.42
2016-11-28T04:12:53.196Z,1021.44
2016-11-28T04:13:53.177Z,1021.48
2016-11-28T04:14:53.163Z,1021.44
2016-11-28T04:15:53.143Z,1021.47
2016-11-28T04:16:53.129Z,1021.5
2016-11-28T04:17:53.108Z,1021.5
2016-11-28T04:18:53.088Z,1021.52
2016-11-28T04:19:53.074Z,1021.5
2016-11-28T04:20:53.057Z,1021.49
2016-11-28T04:21:53.039Z,1021.48
2016-11-28T04:22:53.023Z,1021.53
2016-11-28T04:23:53.004Z,1021.49
2016-11-28T04:24:52.985Z,1021.47
2016-11-28T04:25:52.969Z,1021.47
2016-11-28T04:26:52.956Z,1021.52
2016-11-28T04:27:52.935Z,1021.49
2016-11-28T04:28:52.920Z,1021.51
2016-11-28T04:29:52.900Z,1021.57
2016-11-28T04:30:52.883Z,1021.51
2016-11-28T04:31:52.868Z,1021.52
2016-11-28T04:32:52.852Z,1021.52
2016-11-28T04:33:52.833Z,1021.47
2016-11-28T04:34:52.814Z,1021.54
2016-11-28T04:35:52.797Z,1021.57
2016-11-28T04:36:52.780Z,1021.57
2016-11-28T04:37:52.762Z,1021.55
2016-11-28T04:38:52.746Z,1021.54
2016-11-28T04:39:52.728Z,1021.62
2016-11-28T04:40:52.712Z,1021.59
2016-11-28T04:41:52.693Z,1021.6
2016-11-28T04:42:52.680Z,1021.62
2016-11-28T04:43:52.659Z,1021.66
2016-11-28T04:44:52.641Z,1021.65
2016-11-28T04:45:52.627Z,1021.65
2016-11-28T04:46:52.607Z,1021.66
2016-11-28T04:47:52.594Z,1021.66
2016-11-28T04:48:52.572Z,1021.69
2016-11-28T04:49:52.555Z,1021.66
2016-11-28T04:50:52.538Z,1021.7
2016-11-28T04:51:52.521Z,1021.68
2016-11-28T04:52:52.504Z,1021.7
2016-11-28T04:53:52.486Z,1021.75
2016-11-28T04:54:52.467Z,1021.76
2016-11-28T04:55:52.452Z,1021.74
2016-11-28T04:56:52.434Z,1021.73
2016-11-28T04:57:52.415Z,1021.72
2016-11-28T04:58:52.398Z,1021.73
2016-11-28T04:59:52.381Z,1021.76
2016-11-28T05:00:52.365Z,1021.8
2016-11-28T05:01:52.350Z,1021.72
2016-11-28T05:02:52.331Z,1021.74
2016-11-28T05:03:52.312Z,1021.78
2016-11-28T05:04:52.294Z,1021.75
2016-11-28T05:05:52.277Z,1021.83
2016-11-28T05:06:52.264Z,1021.83
2016-11-28T05:07:52.244Z,1021.78
2016-11-28T05:08:52.226Z,1021.86
2016-11-28T05:09:52.210Z,1021.88
2016-11-28T05:10:52.191Z,1021.9
2016-11-28T05:11:52.175Z,1021.9
2016-11-28T05:12:52.157Z,1021.91
2016-11-28T05:13:52.140Z,1021.93
2016-11-28T05:14:52.122Z,1021.94
2016-11-28T05:15:52.105Z,1021.98
2016-11-28T05:16:52.088Z,1021.99
2016-11-28T05:17:52.071Z,1021.98
2016-11-28T05:18:52.055Z,1021.95
2016-11-28T05:19:52.036Z,1021.99
2016-11-28T05:20:52.021Z,1021.99
2016-11-28T05:21:52.003Z,1022.02
2016-11-28T05:22:51.984Z,1022.02
2016-11-28T05:23:51.966Z,1022.03
2016-11-28T05:24:51.951Z,1022.01
2016-11-28T05:25:52.159Z,1022.07
2016-11-28T05:26:51.916Z,1022.06
2016-11-28T05:27:51.901Z,1022.12
2016-11-28T05:28:51.883Z,1022.08
2016-11-28T05:29:51.866Z,1022.14
2016-11-28T05:30:51.849Z,1022.11
2016-11-28T05:31:51.832Z,1022.11
2016-11-28T05:32:51.819Z,1022.12
2016-11-28T05:33:51.799Z,1022.11
2016-11-28T05:34:51.782Z,1022.13
2016-11-28T05:35:51.765Z,1022.13
2016-11-28T05:36:51.748Z,1022.15
2016-11-28T05:37:51.731Z,1022.12
2016-11-28T05:38:51.713Z,1022.17
2016-11-28T05:39:51.696Z,1022.15
2016-11-28T05:40:51.681Z,1022.17
2016-11-28T05:41:51.662Z,1022.17
2016-11-28T05:42:51.646Z,1022.19
2016-11-28T05:43:51.633Z,1022.18
2016-11-28T05:44:51.612Z,1022.22
2016-11-28T05:45:51.595Z,1022.23
2016-11-28T05:46:51.580Z,1022.2
2016-11-28T05:47:51.562Z,1022.2
2016-11-28T05:48:51.548Z,1022.21
2016-11-28T05:49:51.530Z,1022.23
2016-11-28T05:50:51.511Z,1022.27
2016-11-28T05:51:51.495Z,1022.24
2016-11-28T05:52:51.483Z,1022.27
2016-11-28T05:53:51.461Z,1022.25
2016-11-28T05:54:51.444Z,1022.28
2016-11-28T05:55:51.428Z,1022.3
2016-11-28T05:56:51.412Z,1022.34
2016-11-28T05:57:51.399Z,1022.35
2016-11-28T05:58:51.377Z,1022.37
2016-11-28T05:59:51.360Z,1022.39
2016-11-28T06:00:51.345Z,1022.41
2016-11-28T06:01:51.328Z,1022.47
2016-11-28T06:02:51.310Z,1022.45
2016-11-28T06:03:51.292Z,1022.49
2016-11-28T06:04:51.280Z,1022.54
2016-11-28T06:05:51.261Z,1022.56
2016-11-28T06:06:51.248Z,1022.55
2016-11-28T06:07:51.229Z,1022.51
2016-11-28T06:08:51.211Z,1022.55
2016-11-28T06:09:51.194Z,1022.55
2016-11-28T06:10:51.180Z,1022.56
2016-11-28T06:11:51.162Z,1022.52
2016-11-28T06:12:51.145Z,1022.54
2016-11-28T06:13:51.127Z,1022.6
2016-11-28T06:14:51.111Z,1022.61
2016-11-28T06:15:51.095Z,1022.66
2016-11-28T06:16:51.078Z,1022.63
2016-11-28T06:17:51.066Z,1022.65
2016-11-28T06:18:51.044Z,1022.66
2016-11-28T06:19:51.029Z,1022.73
2016-11-28T06:20:51.012Z,1022.76
2016-11-28T06:21:50.994Z,1022.77
2016-11-28T06:22:50.979Z,1022.8
2016-11-28T06:23:50.961Z,1022.82
2016-11-28T06:24:50.944Z,1022.85
2016-11-28T06:25:50.927Z,1022.83
2016-11-28T06:26:50.910Z,1022.9
2016-11-28T06:27:50.897Z,1022.9
2016-11-28T06:28:50.878Z,1022.91
2016-11-28T06:29:50.863Z,1022.89
2016-11-28T06:30:50.847Z,1022.9
2016-11-28T06:31:50.828Z,1022.92
2016-11-28T06:32:50.810Z,1022.92
2016-11-28T06:33:50.794Z,1022.91
2016-11-28T06:34:50.778Z,1022.96
2016-11-28T06:35:50.761Z,1023
2016-11-28T06:36:50.746Z,1022.98
2016-11-28T06:37:50.729Z,1023.02
2016-11-28T06:38:50.714Z,1023.04
2016-11-28T06:39:50.695Z,1023.04
2016-11-28T06:40:50.677Z,1023.04
2016-11-28T06:41:50.662Z,1023.08
2016-11-28T06:42:50.648Z,1023.09
2016-11-28T06:43:50.629Z,1023.12
2016-11-28T06:44:50.616Z,1023.13
2016-11-28T06:45:50.595Z,1023.19
2016-11-28T06:46:50.580Z,1023.22
2016-11-28T06:47:50.570Z,1023.23
2016-11-28T06:48:50.546Z,1023.24
2016-11-28T06:49:50.537Z,1023.25
2016-11-28T06:50:50.516Z,1023.23
2016-11-28T06:51:50.499Z,1023.26
2016-11-28T06:52:50.481Z,1023.29
2016-11-28T06:53:50.465Z,1023.34
2016-11-28T06:54:50.447Z,1023.3
2016-11-28T06:55:50.432Z,1023.36
2016-11-28T06:56:50.415Z,1023.35
2016-11-28T06:57:50.399Z,1023.34
2016-11-28T06:58:50.382Z,1023.38
2016-11-28T06:59:50.365Z,1023.42
2016-11-28T07:00:50.354Z,1023.43
2016-11-28T07:01:50.332Z,1023.4
2016-11-28T07:02:50.317Z,1023.45
2016-11-28T07:03:50.300Z,1023.46
2016-11-28T07:04:50.285Z,1023.49
2016-11-28T07:05:50.270Z,1023.47
2016-11-28T07:06:50.251Z,1023.5
2016-11-28T07:07:50.236Z,1023.53
2016-11-28T07:08:50.218Z,1023.53
2016-11-28T07:09:50.201Z,1023.52
2016-11-28T07:10:50.186Z,1023.57
2016-11-28T07:11:50.171Z,1023.55
2016-11-28T07:12:50.154Z,1023.5
2016-11-28T07:13:50.137Z,1023.5
2016-11-28T07:14:50.121Z,1023.48
2016-11-28T07:15:50.104Z,1023.52
2016-11-28T07:16:50.088Z,1023.51
2016-11-28T07:17:50.072Z,1023.57
2016-11-28T07:18:50.057Z,1023.55
2016-11-28T07:19:50.040Z,1023.52
2016-11-28T07:20:50.027Z,1023.58
2016-11-28T07:21:50.007Z,1023.58
2016-11-28T07:22:49.992Z,1023.59
2016-11-28T07:23:49.973Z,1023.58
2016-11-28T07:24:49.958Z,1023.58
2016-11-28T07:25:49.940Z,1023.63
2016-11-28T07:26:49.927Z,1023.63
2016-11-28T07:27:49.908Z,1023.67
2016-11-28T07:28:49.892Z,1023.67
2016-11-28T07:29:49.876Z,1023.69
2016-11-28T07:30:49.862Z,1023.66
2016-11-28T07:31:49.847Z,1023.71
2016-11-28T07:32:49.828Z,1023.73
2016-11-28T07:33:49.810Z,1023.71
2016-11-28T07:34:49.793Z,1023.76
2016-11-28T07:35:49.778Z,1023.81
2016-11-28T07:36:49.763Z,1023.85
2016-11-28T07:37:49.746Z,1023.87
2016-11-28T07:38:49.728Z,1023.9
2016-11-28T07:39:49.714Z,1023.95
2016-11-28T07:40:49.698Z,1023.91
2016-11-28T07:41:49.681Z,1023.95
2016-11-28T07:42:49.667Z,1023.93
2016-11-28T07:43:49.648Z,1023.95
2016-11-28T07:44:49.631Z,1023.92
2016-11-28T07:45:49.616Z,1023.99
2016-11-28T07:46:49.599Z,1024.01
2016-11-28T07:47:49.583Z,1024.09
2016-11-28T07:48:49.568Z,1024.09
2016-11-28T07:49:49.553Z,1024.07
2016-11-28T07:50:49.534Z,1024.08
2016-11-28T07:51:49.519Z,1024.12
2016-11-28T07:52:49.501Z,1024.15
2016-11-28T07:53:49.488Z,1024.11
2016-11-28T07:54:49.469Z,1024.14
2016-11-28T07:55:49.457Z,1024.21
2016-11-28T07:56:49.437Z,1024.15
2016-11-28T07:57:49.421Z,1024.14
2016-11-28T07:58:49.405Z,1024.12
2016-11-28T07:59:49.388Z,1024.18
2016-11-28T08:00:49.384Z,1024.17
2016-11-28T08:01:49.362Z,1024.14
2016-11-28T08:02:49.339Z,1024.2
2016-11-28T08:03:49.324Z,1024.22
2016-11-28T08:04:49.307Z,1024.22
2016-11-28T08:05:49.292Z,1024.21
2016-11-28T08:06:49.279Z,1024.22
2016-11-28T08:07:49.259Z,1024.21
2016-11-28T08:08:49.242Z,1024.25
2016-11-28T08:09:49.226Z,1024.27
2016-11-28T08:10:49.211Z,1024.29
2016-11-28T08:11:49.194Z,1024.36
2016-11-28T08:12:49.180Z,1024.38
2016-11-28T08:13:49.162Z,1024.42
2016-11-28T08:14:49.147Z,1024.4
2016-11-28T08:15:49.132Z,1024.45
2016-11-28T08:16:49.115Z,1024.4
2016-11-28T08:17:49.097Z,1024.46
2016-11-28T08:18:49.082Z,1024.46
2016-11-28T08:19:49.065Z,1024.47
2016-11-28T08:20:49.050Z,1024.48
2016-11-28T08:21:49.034Z,1024.53
2016-11-28T08:22:49.017Z,1024.52
2016-11-28T08:23:49.000Z,1024.55
2016-11-28T08:24:48.985Z,1024.56
2016-11-28T08:25:48.970Z,1024.57
2016-11-28T08:26:48.952Z,1024.61
2016-11-28T08:27:48.937Z,1024.56
2016-11-28T08:28:48.920Z,1024.63
2016-11-28T08:29:48.903Z,1024.71
2016-11-28T08:30:48.887Z,1024.69
2016-11-28T08:31:48.872Z,1024.66
2016-11-28T08:32:48.855Z,1024.72
2016-11-28T08:33:48.840Z,1024.68
2016-11-28T08:34:48.824Z,1024.68
2016-11-28T08:35:48.807Z,1024.71
2016-11-28T08:36:48.796Z,1024.72
2016-11-28T08:37:48.775Z,1024.78
2016-11-28T08:38:48.760Z,1024.76
2016-11-28T08:39:48.744Z,1024.81
2016-11-28T08:40:48.727Z,1024.84
2016-11-28T08:41:48.712Z,1024.83
2016-11-28T08:42:48.697Z,1024.81
2016-11-28T08:43:48.684Z,1024.87
2016-11-28T08:44:48.662Z,1024.87
2016-11-28T08:45:48.650Z,1024.87
2016-11-28T08:46:48.633Z,1024.9
2016-11-28T08:47:48.616Z,1024.92
2016-11-28T08:48:48.597Z,1024.93
2016-11-28T08:49:48.582Z,1024.92
2016-11-28T08:50:48.566Z,1024.98
2016-11-28T08:51:48.549Z,1024.96
2016-11-28T08:52:48.534Z,1024.94
2016-11-28T08:53:48.517Z,1024.95
2016-11-28T08:54:48.502Z,1025
2016-11-28T08:55:48.487Z,1024.99
2016-11-28T08:56:48.469Z,1025.08
2016-11-28T08:57:48.456Z,1025.06
2016-11-28T08:58:48.439Z,1025.12
2016-11-28T08:59:48.421Z,1025.16
2016-11-28T09:00:48.411Z,1025.11
2016-11-28T09:01:48.389Z,1025.05
2016-11-28T09:02:48.372Z,1025.09
2016-11-28T09:03:48.356Z,1025.07
2016-11-28T09:04:48.341Z,1025.13
2016-11-28T09:05:48.324Z,1025.2
2016-11-28T09:06:48.306Z,1025.25
2016-11-28T09:07:48.292Z,1025.2
2016-11-28T09:08:48.276Z,1025.18
2016-11-28T09:09:48.262Z,1025.21
2016-11-28T09:10:48.244Z,1025.22
2016-11-28T09:11:48.230Z,1025.26
2016-11-28T09:12:48.211Z,1025.25
2016-11-28T09:13:48.193Z,1025.26
2016-11-28T09:14:48.174Z,1025.27
2016-11-28T09:15:48.161Z,1025.29
2016-11-28T09:16:48.145Z,1025.26
2016-11-28T09:17:48.128Z,1025.34
2016-11-28T09:18:48.111Z,1025.28
2016-11-28T09:19:48.096Z,1025.3
2016-11-28T09:20:48.080Z,1025.31
2016-11-28T09:21:48.063Z,1025.3
2016-11-28T09:22:48.049Z,1025.3
2016-11-28T09:23:48.030Z,1025.35
2016-11-28T09:24:48.013Z,1025.36
2016-11-28T09:25:47.997Z,1025.38
2016-11-28T09:26:47.982Z,1025.37
2016-11-28T09:27:47.965Z,1025.39
2016-11-28T09:28:47.950Z,1025.43
2016-11-28T09:29:47.933Z,1025.43
2016-11-28T09:30:47.911Z,1025.43
2016-11-28T09:31:47.900Z,1025.49
2016-11-28T09:32:47.885Z,1025.51
2016-11-28T09:33:47.867Z,1025.46
2016-11-28T09:34:47.852Z,1025.51
2016-11-28T09:35:47.838Z,1025.51
2016-11-28T09:36:47.819Z,1025.49
2016-11-28T09:37:47.802Z,1025.46
2016-11-28T09:38:47.786Z,1025.46
2016-11-28T09:39:47.769Z,1025.52
2016-11-28T09:40:47.754Z,1025.5
2016-11-28T09:41:47.738Z,1025.53
2016-11-28T09:42:47.721Z,1025.53
2016-11-28T09:43:47.708Z,1025.58
2016-11-28T09:44:47.690Z,1025.57
2016-11-28T09:45:47.674Z,1025.59
2016-11-28T09:46:47.658Z,1025.55
2016-11-28T09:47:47.641Z,1025.59
2016-11-28T09:48:47.626Z,1025.58
2016-11-28T09:49:47.606Z,1025.58
2016-11-28T09:50:47.594Z,1025.57
2016-11-28T09:51:47.577Z,1025.54
2016-11-28T09:52:47.565Z,1025.54
2016-11-28T09:53:47.547Z,1025.55
2016-11-28T09:54:47.531Z,1025.57
2016-11-28T09:55:47.513Z,1025.51
2016-11-28T09:56:47.498Z,1025.55
2016-11-28T09:57:47.479Z,1025.57
2016-11-28T09:58:47.463Z,1025.59
2016-11-28T09:59:47.447Z,1025.56
2016-11-28T10:00:47.433Z,1025.6
2016-11-28T10:01:47.420Z,1025.61
2016-11-28T10:02:47.400Z,1025.6
2016-11-28T10:03:47.383Z,1025.6
2016-11-28T10:04:47.366Z,1025.62
2016-11-28T10:05:47.351Z,1025.68
2016-11-28T10:06:47.335Z,1025.64
2016-11-28T10:07:47.321Z,1025.65
2016-11-28T10:08:47.301Z,1025.63
2016-11-28T10:09:47.285Z,1025.67
2016-11-28T10:10:47.271Z,1025.64
2016-11-28T10:11:47.256Z,1025.63
2016-11-28T10:12:47.238Z,1025.62
2016-11-28T10:13:47.225Z,1025.61
2016-11-28T10:14:47.208Z,1025.6
2016-11-28T10:15:47.191Z,1025.57
2016-11-28T10:16:47.178Z,1025.58
2016-11-28T10:17:47.158Z,1025.52
2016-11-28T10:18:47.143Z,1025.52
2016-11-28T10:19:47.127Z,1025.55
2016-11-28T10:20:47.108Z,1025.51
2016-11-28T10:21:47.095Z,1025.5
2016-11-28T10:22:47.078Z,1025.51
2016-11-28T10:23:47.061Z,1025.53
2016-11-28T10:24:47.048Z,1025.55
2016-11-28T10:25:47.030Z,1025.58
2016-11-28T10:26:47.013Z,1025.59
2016-11-28T10:27:46.997Z,1025.58
2016-11-28T10:28:46.981Z,1025.6
2016-11-28T10:29:46.965Z,1025.59
2016-11-28T10:30:46.948Z,1025.63
2016-11-28T10:31:46.936Z,1025.62
2016-11-28T10:32:46.917Z,1025.59
2016-11-28T10:33:46.900Z,1025.64
2016-11-28T10:34:46.885Z,1025.65
2016-11-28T10:35:46.870Z,1025.67
2016-11-28T10:36:46.851Z,1025.69
2016-11-28T10:37:46.837Z,1025.64
2016-11-28T10:38:46.823Z,1025.66
2016-11-28T10:39:46.807Z,1025.67
2016-11-28T10:40:46.792Z,1025.65
2016-11-28T10:41:46.769Z,1025.63
2016-11-28T10:42:46.758Z,1025.65
2016-11-28T10:43:46.744Z,1025.65
2016-11-28T10:44:46.727Z,1025.66
2016-11-28T10:45:46.711Z,1025.65
2016-11-28T10:46:46.694Z,1025.62
2016-11-28T10:47:46.677Z,1025.63
2016-11-28T10:48:46.663Z,1025.63
2016-11-28T10:49:46.650Z,1025.62
2016-11-28T10:50:46.631Z,1025.65
2016-11-28T10:51:46.616Z,1025.61
2016-11-28T10:52:46.599Z,1025.65
2016-11-28T10:53:46.583Z,1025.59
2016-11-28T10:54:46.565Z,1025.58
2016-11-28T10:55:46.555Z,1025.57
2016-11-28T10:56:46.535Z,1025.58
2016-11-28T10:57:46.523Z,1025.57
2016-11-28T10:58:46.504Z,1025.61
2016-11-28T10:59:46.484Z,1025.62
2016-11-28T11:00:46.473Z,1025.63
2016-11-28T11:01:46.504Z,1025.57
2016-11-28T11:02:46.443Z,1025.6
2016-11-28T11:03:46.424Z,1025.51
2016-11-28T11:04:46.406Z,1025.55
2016-11-28T11:05:46.389Z,1025.52
2016-11-28T11:06:46.372Z,1025.53
2016-11-28T11:07:46.357Z,1025.54
2016-11-28T11:08:46.344Z,1025.51
2016-11-28T11:09:46.325Z,1025.49
2016-11-28T11:10:46.305Z,1025.52
2016-11-28T11:11:46.292Z,1025.55
2016-11-28T11:12:46.279Z,1025.59
2016-11-28T11:13:46.259Z,1025.57
2016-11-28T11:14:46.255Z,1025.54
2016-11-28T11:15:46.227Z,1025.59
2016-11-28T11:16:46.211Z,1025.61
2016-11-28T11:17:46.194Z,1025.57
2016-11-28T11:18:46.178Z,1025.54
2016-11-28T11:19:46.163Z,1025.59
2016-11-28T11:20:46.146Z,1025.59
2016-11-28T11:21:46.129Z,1025.57
2016-11-28T11:22:46.115Z,1025.55
2016-11-28T11:23:46.096Z,1025.59
2016-11-28T11:24:46.082Z,1025.54
2016-11-28T11:25:46.066Z,1025.57
2016-11-28T11:26:46.049Z,1025.67
2016-11-28T11:27:46.036Z,1025.62
2016-11-28T11:28:46.017Z,1025.66
2016-11-28T11:29:45.999Z,1025.62
2016-11-28T11:30:45.990Z,1025.63
2016-11-28T11:31:45.969Z,1025.67
2016-11-28T11:32:45.956Z,1025.67
2016-11-28T11:33:45.935Z,1025.7
2016-11-28T11:34:45.920Z,1025.72
2016-11-28T11:35:45.905Z,1025.72
2016-11-28T11:36:45.887Z,1025.71
2016-11-28T11:37:45.873Z,1025.77
2016-11-28T11:38:45.857Z,1025.77
2016-11-28T11:39:45.840Z,1025.71
2016-11-28T11:40:45.823Z,1025.69
2016-11-28T11:41:45.808Z,1025.72
2016-11-28T11:42:45.800Z,1025.75
2016-11-28T11:43:45.779Z,1025.73
2016-11-28T11:44:45.762Z,1025.8
2016-11-28T11:45:45.745Z,1025.79
2016-11-28T11:46:45.732Z,1025.81
2016-11-28T11:47:45.715Z,1025.8
2016-11-28T11:48:45.700Z,1025.78
2016-11-28T11:49:45.683Z,1025.79
2016-11-28T11:50:45.664Z,1025.8
2016-11-28T11:51:45.652Z,1025.76
2016-11-28T11:52:45.633Z,1025.77
2016-11-28T11:53:45.619Z,1025.71
2016-11-28T11:54:45.602Z,1025.72
2016-11-28T11:55:45.587Z,1025.75
2016-11-28T11:56:45.572Z,1025.76
2016-11-28T11:57:45.554Z,1025.78
2016-11-28T11:58:45.540Z,1025.81
2016-11-28T11:59:45.524Z,1025.76
2016-11-28T12:00:45.511Z,1025.79
2016-11-28T12:01:45.492Z,1025.77
2016-11-28T12:02:45.479Z,1025.8
2016-11-28T12:03:45.460Z,1025.75
2016-11-28T12:04:45.444Z,1025.76
2016-11-28T12:05:45.431Z,1025.77
2016-11-28T12:06:45.412Z,1025.72
2016-11-28T12:07:45.396Z,1025.76
2016-11-28T12:08:45.383Z,1025.76